Flight Track Log - Related Links

Times and Time Zones

All times are in EDT time to prevent confusion due to time zone crossing. See the N508SB flight status page for this flight to view local times or setup timezone preferences in your user account.

Time Position Orientation Groundspeed Altitude Reporting Facility
EDT Latitude Longitude Course Direction KTS MPH feet Rate Location/Type
Tue 03:11:46 PM 42.8889 -83.7856 277° West 167 192 3,500  Level Cleveland Center
Tue 03:12:46 PM 42.8953 -83.8508 278° West 172 198 4,400 1,000 Climbing Cleveland Center
Tue 03:13:46 PM 42.9022 -83.9053 280° West 156 180 5,500 1,150 Climbing Cleveland Center
Tue 03:14:46 PM 42.9092 -83.9536 281° West 143 165 6,700 1,150 Climbing Cleveland Center
Tue 03:15:46 PM 42.9119 -83.9936 275° West 130 150 7,800 1,150 Climbing Cleveland Center
Tue 03:16:00 PM 42.9735 -83.9744 277° West  Level FlightAware Approximate
Tue 03:16:46 PM 42.9169 -84.0364 279° West 125 144 9,000  Level Cleveland Center
Tue 03:17:00 PM 42.9779 -84.0226 277° West  Level FlightAware Approximate
Tue 03:17:45 PM 42.9200 -84.0792 276° West 125 144 10,100  Level Cleveland Center
Tue 03:18:46 PM 42.9269 -84.1222 282° West 125 144 11,300 1,190 Climbing Cleveland Center
Tue 03:19:46 PM 42.9297 -84.1647 275° West 125 144 12,500 1,210 Climbing Cleveland Center
Tue 03:20:45 PM 42.9369 -84.2050 284° West 125 144 13,700 1,150 Climbing Cleveland Center
Tue 03:21:46 PM 42.9419 -84.2450 280° West 125 144 14,800 1,140 Climbing Cleveland Center
Tue 03:22:46 PM 42.9447 -84.2847 275° West 125 144 16,000 600 Climbing Cleveland Center
Tue 03:23:46 PM 42.9536 -84.3364 283° West 130 150 16,000  Level Cleveland Center
Tue 03:24:30 PM 42.9614 -84.3869 282° West 160 184 16,000  Level Chicago Center
Tue 03:25:31 PM 42.9683 -84.4467 279° West 160 184 16,000  Level Chicago Center
Tue 03:26:33 PM 42.9753 -84.5047 279° West 157 181 16,000  Level Chicago Center
Tue 03:27:35 PM 42.9822 -84.5614 280° West 153 176 16,000  Level Chicago Center
Tue 03:28:37 PM 42.9886 -84.6194 279° West 155 178 16,000 48 Level Chicago Center
Tue 03:29:39 PM 42.9964 -84.6767 281° West 155 178 16,100 48 Climbing Chicago Center
Tue 03:30:41 PM 43.0031 -84.7444 278° West 151 174 16,100  Level Chicago Center
Tue 03:31:43 PM 43.0111 -84.8042 280° West 159 183 16,100  Level Chicago Center
Tue 03:32:45 PM 43.0181 -84.8631 279° West 158 182 16,100  Level Chicago Center
Tue 03:33:47 PM 43.0242 -84.9231 278° West 160 184 16,100 -195 Level Chicago Center
Tue 03:34:48 PM 42.9797 -84.9297 186° South 208 239 15,700 -293 Descending Chicago Center
Tue 03:35:50 PM 42.9556 -84.8497 112° Southeast 228 262 15,500 -629 Descending Chicago Center
Tue 03:36:52 PM 42.9292 -84.7406 108° East 249 287 14,400 -871 Descending Chicago Center
Tue 03:37:54 PM 42.9072 -84.6497 108° East 252 290 13,700 -677 Descending Chicago Center
Tue 03:38:56 PM 42.8867 -84.5614 108° East 247 284 13,000 -726 Descending Chicago Center
Tue 03:39:58 PM 42.8644 -84.4747 109° East 243 280 12,200 -744 Descending Chicago Center
Tue 03:40:57 PM 42.8433 -84.3919 109° East 247 284 11,500 -605 Descending Cleveland Center
Tue 03:41:57 PM 42.8211 -84.3058 109° East 242 278 11,000 -628 Descending Cleveland Center
Tue 03:42:23 PM 42.8119 -84.2628 106° East 234 269 10,600 -700 Descending Cleveland Center
Tue 03:42:57 PM 42.7986 -84.2222 114° Southeast 237 273 10,300 -702 Descending Cleveland Center
Tue 03:43:57 PM 42.7808 -84.1308 105° East 232 267 9,500 -763 Descending Cleveland Center
Tue 03:44:55 PM 42.7603 -84.0533 110° East 230 265 8,800 -690 Descending Cleveland Center
Tue 03:45:50 PM 42.7436 -83.9789 107° East 224 258 8,200 -655 Descending Cleveland Center
Tue 03:46:45 PM 42.7250 -83.9042 109° East 219 252 7,600 -689 Descending Cleveland Center
Tue 03:47:52 PM 42.7044 -83.8211 109° East 215 247 6,800 -639 Descending Cleveland Center
Tue 03:48:47 PM 42.6875 -83.7553 109° East 209 241 6,300 -590 Descending Cleveland Center
Tue 03:49:54 PM 42.6669 -83.6697 108° East 203 234 5,600 -639 Descending Cleveland Center
Tue 03:50:49 PM 42.6497 -83.6067 110° East 200 230 5,000 -590 Descending Cleveland Center
Tue 03:51:56 PM 42.6308 -83.5322 109° East 187 215 4,400 -537 Descending Cleveland Center
Tue 03:53:03 PM 42.6139 -83.4581 107° East 177 204 3,800 -516 Descending Cleveland Center
Tue 03:54:04 PM 42.5986 -83.4011 110° East 166 191 3,300 -234 Descending Cleveland Center
Tue 03:55:11 PM 42.5900 -83.3331 100° East 159 183 3,300 98 Level Cleveland Center
Tue 03:56:07 PM 42.5994 -83.2797 76° East 159 183 3,500 155 Climbing Cleveland Center
Tue 03:57:07 PM 42.6114 -83.2211 75° East 157 181 3,600 -104 Climbing Cleveland Center
Tue 03:58:02 PM 42.6064 -83.1672 97° East 144 166 3,300 -639 Descending Cleveland Center
Tue 03:59:09 PM 42.5642 -83.1825 195° South 144 166 2,300 -516 Descending Cleveland Center
Tue 04:00:10 PM 42.5286 -83.1894 188° South 112 129 2,200 -148 Descending Cleveland Center
Tue 04:01:11 PM 42.5275 -83.1500 92° East 94 108 2,000 -541 Descending Cleveland Center
Tue 04:02:12 PM 42.5439 -83.1592 338° Northwest 90 104 1,100 -885 Descending Cleveland Center
Tue 04:04:00 PM 42.5333 -83.1667 324° Northwest  Level FlightAware Approximate
Tue 04:11:00 PM 42.5429 -83.1779 324° Northwest  Level Estimated

Login

Don't have an account? Register now (free) for customized features, flight alerts, and more!